Barton City, MI

8:32 AM EDT on August 04, 2015 (GMT -0400)
MesoWest | | Change Station
CLOSE
Current Station
Personal Weather Station
Location: Glennie, MI
Elevation: 830 ft
Nearby Weather Stations

Elev 830 ft 44.45 °N, 83.69 °W | Updated 42 minutes ago

Overcast
Overcast
56 °F
Feels Like 56 °F
N
1
Wind Variable Wind from SSW
Gusts 3.0 mph

Today
High -- | Low -- °F
--% Chance of Precip.
Yesterday
High -- | Low -- °F
Precip. -- in
6:23 AM 8:56 PM
Waning Gibbous, 78% visible
Pressure 29.86 in
Visibility 10.0 miles
Clouds Mostly Cloudy 7000 ft
Overcast 10000 ft
Dew Point 54 °F
Humidity 94%
Rainfall in
Snow Depth Not available.
UV 0 out of 12
Pollen 6.30 out of 12
Air Quality Not available.
Flu Activity Not available.
METAR KOSC 041214Z AUTO 23004KT 10SM BKN070 OVC100 15/13 A2986 RMK AO2 T01470137

More Conditions Fewer Conditions

Pressure 29.86 in
Visibility 10.0 miles
Clouds Mostly Cloudy 7000 ft
Overcast 10000 ft
Dew Point 54 °F
Humidity 94%
Rainfall in
Snow Depth Not available.
UV 0 out of 12
Pollen 6.30 out of 12
Air Quality Not available.
Flu Activity Not available.
METAR KOSC 041214Z AUTO 23004KT 10SM BKN070 OVC100 15/13 A2986 RMK AO2 T01470137

More Conditions Fewer Conditions

Nowcast | as of 8:00 am EDT on August 4, 2015

At 9 am...mostly cloudy. Isolated showers. Temperature 63. West winds 5 mph. At 11 am...mostly cloudy. Scattered showers. Temperature 67. Southwest winds 6 mph. At 1 PM...mostly cloudy. Scattered showers. Temperature 68. West winds 8 mph. At 3 PM...mostly cloudy. Scattered showers. Temperature 68. Northwest winds 9 mph.

×

10-Day Weather Forecast

×

Almanac

Astronomy

Aug. 04, 2015 Rise Set
Actual Time
Civil Twilight
Nautical Twilight
Astronomical Twilight
Moon
Length of Visible Light
Length of Day
Tomorrow will be .
, % of the Moon is Illuminated

Today's Extremes

State Highs State Lows

Community

WunderPhotos

Upload Photos

1,843,911 photos uploaded!

WunderBlogs® & News

Nearby

Air Quality

  Air Quality AQ Index Pollutant
Not available.

Snow Depth

Station Depth Elevation

Earthquake Activity

City Distance Mag. Time & Date
Minimum magnitude displayed is 2.5.

Coastal Water Temperatures

Place Temperature

Stations

Nearby Weather Stations

Station Location Temp. Windchill Dew Point Humidity Wind Precip. Elev Updated Type